sensor_id;sensor_type;location;lat;lon;timestamp;temperature;humidity
21612;DHT22;47005;52.292;13.452;2023-08-30T00:01:09;16.10;99.90
21612;DHT22;47005;52.292;13.452;2023-08-30T00:03:35;16.10;99.90
21612;DHT22;47005;52.292;13.452;2023-08-30T00:06:05;16.10;99.90
21612;DHT22;47005;52.292;13.452;2023-08-30T00:08:31;16.10;99.90
21612;DHT22;47005;52.292;13.452;2023-08-30T00:10:57;16.00;99.90
21612;DHT22;47005;52.292;13.452;2023-08-30T00:13:25;16.10;99.90
21612;DHT22;47005;52.292;13.452;2023-08-30T00:15:51;16.00;99.90
21612;DHT22;47005;52.292;13.452;2023-08-30T00:18:16;16.00;99.90
21612;DHT22;47005;52.292;13.452;2023-08-30T00:20:44;16.00;99.90
21612;DHT22;47005;52.292;13.452;2023-08-30T00:23:10;16.00;99.90
21612;DHT22;47005;52.292;13.452;2023-08-30T00:25:35;16.00;99.90
21612;DHT22;47005;52.292;13.452;2023-08-30T00:28:01;16.00;99.90
21612;DHT22;47005;52.292;13.452;2023-08-30T00:30:27;16.00;99.90
21612;DHT22;47005;52.292;13.452;2023-08-30T00:32:52;16.00;99.90
21612;DHT22;47005;52.292;13.452;2023-08-30T00:35:18;16.00;99.90
21612;DHT22;47005;52.292;13.452;2023-08-30T00:37:44;16.00;99.90
21612;DHT22;47005;52.292;13.452;2023-08-30T00:40:09;16.00;99.90
21612;DHT22;47005;52.292;13.452;2023-08-30T00:42:35;16.00;99.90
21612;DHT22;47005;52.292;13.452;2023-08-30T00:45:01;16.00;99.90
21612;DHT22;47005;52.292;13.452;2023-08-30T00:47:26;16.00;99.90
21612;DHT22;47005;52.292;13.452;2023-08-30T00:49:52;16.00;99.90
21612;DHT22;47005;52.292;13.452;2023-08-30T00:52:18;16.00;99.90
21612;DHT22;47005;52.292;13.452;2023-08-30T00:54:44;16.00;99.90
21612;DHT22;47005;52.292;13.452;2023-08-30T00:57:09;16.00;99.90
21612;DHT22;47005;52.292;13.452;2023-08-30T00:59:35;16.00;99.90
21612;DHT22;47005;52.292;13.452;2023-08-30T01:02:02;16.00;99.90
21612;DHT22;47005;52.292;13.452;2023-08-30T01:04:28;15.90;99.90
21612;DHT22;47005;52.292;13.452;2023-08-30T01:06:53;16.00;99.90
21612;DHT22;47005;52.292;13.452;2023-08-30T01:09:19;15.90;99.90
21612;DHT22;47005;52.292;13.452;2023-08-30T01:12:04;15.90;99.90
21612;DHT22;47005;52.292;13.452;2023-08-30T01:15:09;15.90;99.90
21612;DHT22;47005;52.292;13.452;2023-08-30T01:17:36;15.90;99.90
21612;DHT22;47005;52.292;13.452;2023-08-30T01:20:06;15.90;99.90
21612;DHT22;47005;52.292;13.452;2023-08-30T01:23:05;15.90;99.90
21612;DHT22;47005;52.292;13.452;2023-08-30T01:28:26;15.90;99.90
21612;DHT22;47005;52.292;13.452;2023-08-30T01:30:52;15.90;99.90
21612;DHT22;47005;52.292;13.452;2023-08-30T01:33:23;15.90;99.90
21612;DHT22;47005;52.292;13.452;2023-08-30T01:35:49;15.80;99.90
21612;DHT22;47005;52.292;13.452;2023-08-30T01:38:16;15.90;99.90
21612;DHT22;47005;52.292;13.452;2023-08-30T01:40:43;15.90;99.90
21612;DHT22;47005;52.292;13.452;2023-08-30T01:43:10;15.80;99.90
21612;DHT22;47005;52.292;13.452;2023-08-30T01:45:41;15.80;99.90
21612;DHT22;47005;52.292;13.452;2023-08-30T01:48:09;15.80;99.90
21612;DHT22;47005;52.292;13.452;2023-08-30T01:50:36;15.80;99.90
21612;DHT22;47005;52.292;13.452;2023-08-30T01:53:03;15.80;99.90
21612;DHT22;47005;52.292;13.452;2023-08-30T01:55:30;15.80;99.90
21612;DHT22;47005;52.292;13.452;2023-08-30T01:57:55;15.80;99.90
21612;DHT22;47005;52.292;13.452;2023-08-30T02:00:21;15.80;99.90
21612;DHT22;47005;52.292;13.452;2023-08-30T02:02:48;15.80;99.90
21612;DHT22;47005;52.292;13.452;2023-08-30T02:05:14;15.80;99.90
21612;DHT22;47005;52.292;13.452;2023-08-30T02:10:21;15.80;99.90
21612;DHT22;47005;52.292;13.452;2023-08-30T02:12:48;15.70;99.90
21612;DHT22;47005;52.292;13.452;2023-08-30T02:15:16;15.80;99.90
21612;DHT22;47005;52.292;13.452;2023-08-30T02:17:43;15.70;99.90
21612;DHT22;47005;52.292;13.452;2023-08-30T02:20:09;15.70;99.90
21612;DHT22;47005;52.292;13.452;2023-08-30T02:22:35;15.70;99.90
21612;DHT22;47005;52.292;13.452;2023-08-30T02:25:01;15.70;99.90
21612;DHT22;47005;52.292;13.452;2023-08-30T02:27:34;15.70;99.90
21612;DHT22;47005;52.292;13.452;2023-08-30T02:30:03;15.70;99.90
21612;DHT22;47005;52.292;13.452;2023-08-30T02:32:29;15.70;99.90
21612;DHT22;47005;52.292;13.452;2023-08-30T02:34:56;15.70;99.90
21612;DHT22;47005;52.292;13.452;2023-08-30T02:37:22;15.70;99.90
21612;DHT22;47005;52.292;13.452;2023-08-30T02:39:47;15.60;99.90
21612;DHT22;47005;52.292;13.452;2023-08-30T02:42:13;15.70;99.90
21612;DHT22;47005;52.292;13.452;2023-08-30T02:44:39;15.60;99.90
21612;DHT22;47005;52.292;13.452;2023-08-30T02:47:04;15.60;99.90
21612;DHT22;47005;52.292;13.452;2023-08-30T02:49:30;15.60;99.90
21612;DHT22;47005;52.292;13.452;2023-08-30T02:51:56;15.60;99.90
21612;DHT22;47005;52.292;13.452;2023-08-30T02:54:21;15.60;99.90
21612;DHT22;47005;52.292;13.452;2023-08-30T02:56:48;15.60;99.90
21612;DHT22;47005;52.292;13.452;2023-08-30T02:59:14;15.60;99.90
21612;DHT22;47005;52.292;13.452;2023-08-30T03:01:40;15.60;99.90
21612;DHT22;47005;52.292;13.452;2023-08-30T03:04:06;15.60;99.90
21612;DHT22;47005;52.292;13.452;2023-08-30T03:06:35;15.60;99.90
21612;DHT22;47005;52.292;13.452;2023-08-30T03:09:02;15.60;99.90
21612;DHT22;47005;52.292;13.452;2023-08-30T03:11:31;15.50;99.90
21612;DHT22;47005;52.292;13.452;2023-08-30T03:13:57;15.50;99.90
21612;DHT22;47005;52.292;13.452;2023-08-30T03:16:23;15.50;99.90
21612;DHT22;47005;52.292;13.452;2023-08-30T03:18:51;15.50;99.90
21612;DHT22;47005;52.292;13.452;2023-08-30T03:21:16;15.50;99.90
21612;DHT22;47005;52.292;13.452;2023-08-30T03:23:42;15.50;99.90
21612;DHT22;47005;52.292;13.452;2023-08-30T03:28:35;15.50;99.90
21612;DHT22;47005;52.292;13.452;2023-08-30T03:31:01;15.40;99.90
21612;DHT22;47005;52.292;13.452;2023-08-30T03:33:26;15.50;99.90
21612;DHT22;47005;52.292;13.452;2023-08-30T03:35:52;15.40;99.90
21612;DHT22;47005;52.292;13.452;2023-08-30T03:38:18;15.40;99.90
21612;DHT22;47005;52.292;13.452;2023-08-30T03:40:43;15.40;99.90
21612;DHT22;47005;52.292;13.452;2023-08-30T03:43:09;15.40;99.90
21612;DHT22;47005;52.292;13.452;2023-08-30T03:45:36;15.40;99.90
21612;DHT22;47005;52.292;13.452;2023-08-30T03:48:03;15.40;99.90
21612;DHT22;47005;52.292;13.452;2023-08-30T03:50:28;15.40;99.90
21612;DHT22;47005;52.292;13.452;2023-08-30T03:52:54;15.40;99.90
21612;DHT22;47005;52.292;13.452;2023-08-30T03:55:19;15.40;99.90
21612;DHT22;47005;52.292;13.452;2023-08-30T03:57:46;15.40;99.90
21612;DHT22;47005;52.292;13.452;2023-08-30T04:00:15;15.40;99.90
21612;DHT22;47005;52.292;13.452;2023-08-30T04:02:40;15.40;99.90
21612;DHT22;47005;52.292;13.452;2023-08-30T04:05:06;15.40;99.90
21612;DHT22;47005;52.292;13.452;2023-08-30T04:07:35;15.40;99.90
21612;DHT22;47005;52.292;13.452;2023-08-30T04:10:02;15.40;99.90
21612;DHT22;47005;52.292;13.452;2023-08-30T04:12:31;15.40;99.90
21612;DHT22;47005;52.292;13.452;2023-08-30T04:14:57;15.40;99.90
21612;DHT22;47005;52.292;13.452;2023-08-30T04:17:22;15.40;99.90
21612;DHT22;47005;52.292;13.452;2023-08-30T04:19:51;15.40;99.90
21612;DHT22;47005;52.292;13.452;2023-08-30T04:22:17;15.40;99.90
21612;DHT22;47005;52.292;13.452;2023-08-30T04:24:43;15.40;99.90
21612;DHT22;47005;52.292;13.452;2023-08-30T04:27:09;15.40;99.90
21612;DHT22;47005;52.292;13.452;2023-08-30T04:29:34;15.40;99.90
21612;DHT22;47005;52.292;13.452;2023-08-30T04:32:00;15.40;99.90
21612;DHT22;47005;52.292;13.452;2023-08-30T04:34:26;15.40;99.90
21612;DHT22;47005;52.292;13.452;2023-08-30T04:36:51;15.30;99.90
21612;DHT22;47005;52.292;13.452;2023-08-30T04:39:17;15.40;99.90
21612;DHT22;47005;52.292;13.452;2023-08-30T04:41:43;15.40;99.90
21612;DHT22;47005;52.292;13.452;2023-08-30T04:44:08;15.40;99.90
21612;DHT22;47005;52.292;13.452;2023-08-30T04:46:34;15.40;99.90
21612;DHT22;47005;52.292;13.452;2023-08-30T04:49:00;15.40;99.90
21612;DHT22;47005;52.292;13.452;2023-08-30T04:51:26;15.40;99.90
21612;DHT22;47005;52.292;13.452;2023-08-30T04:53:52;15.40;99.90
21612;DHT22;47005;52.292;13.452;2023-08-30T04:56:17;15.40;99.90
21612;DHT22;47005;52.292;13.452;2023-08-30T04:58:44;15.40;99.90
21612;DHT22;47005;52.292;13.452;2023-08-30T05:01:09;15.40;99.90
21612;DHT22;47005;52.292;13.452;2023-08-30T05:03:36;15.40;99.90
21612;DHT22;47005;52.292;13.452;2023-08-30T05:06:02;15.40;99.90
21612;DHT22;47005;52.292;13.452;2023-08-30T05:08:28;15.40;99.90
21612;DHT22;47005;52.292;13.452;2023-08-30T05:10:54;15.40;99.90
21612;DHT22;47005;52.292;13.452;2023-08-30T05:13:20;15.40;99.90
21612;DHT22;47005;52.292;13.452;2023-08-30T05:15:45;15.40;99.90
21612;DHT22;47005;52.292;13.452;2023-08-30T05:18:11;15.40;99.90
21612;DHT22;47005;52.292;13.452;2023-08-30T05:20:36;15.40;99.90
21612;DHT22;47005;52.292;13.452;2023-08-30T05:23:02;15.40;99.90
21612;DHT22;47005;52.292;13.452;2023-08-30T05:25:28;15.40;99.90
21612;DHT22;47005;52.292;13.452;2023-08-30T05:27:54;15.40;99.90
21612;DHT22;47005;52.292;13.452;2023-08-30T05:30:19;15.40;99.90
21612;DHT22;47005;52.292;13.452;2023-08-30T05:32:45;15.40;99.90
21612;DHT22;47005;52.292;13.452;2023-08-30T05:35:11;15.40;99.90
21612;DHT22;47005;52.292;13.452;2023-08-30T05:37:36;15.40;99.90
21612;DHT22;47005;52.292;13.452;2023-08-30T05:40:02;15.30;99.90
21612;DHT22;47005;52.292;13.452;2023-08-30T05:42:29;15.40;99.90
21612;DHT22;47005;52.292;13.452;2023-08-30T05:44:54;15.40;99.90
21612;DHT22;47005;52.292;13.452;2023-08-30T05:47:21;15.40;99.90
21612;DHT22;47005;52.292;13.452;2023-08-30T05:49:47;15.40;99.90
21612;DHT22;47005;52.292;13.452;2023-08-30T05:52:14;15.40;99.90
21612;DHT22;47005;52.292;13.452;2023-08-30T05:54:41;15.40;99.90
21612;DHT22;47005;52.292;13.452;2023-08-30T05:57:10;15.40;99.90
21612;DHT22;47005;52.292;13.452;2023-08-30T05:59:36;15.40;99.90
21612;DHT22;47005;52.292;13.452;2023-08-30T06:02:02;15.40;99.90
21612;DHT22;47005;52.292;13.452;2023-08-30T06:04:27;15.40;99.90
21612;DHT22;47005;52.292;13.452;2023-08-30T06:06:53;15.40;99.90
21612;DHT22;47005;52.292;13.452;2023-08-30T06:09:18;15.50;99.90
21612;DHT22;47005;52.292;13.452;2023-08-30T06:11:44;15.50;99.90
21612;DHT22;47005;52.292;13.452;2023-08-30T06:14:10;15.50;99.90
21612;DHT22;47005;52.292;13.452;2023-08-30T06:16:35;15.50;99.90
21612;DHT22;47005;52.292;13.452;2023-08-30T06:19:01;15.50;99.90
21612;DHT22;47005;52.292;13.452;2023-08-30T06:21:27;15.50;99.90
21612;DHT22;47005;52.292;13.452;2023-08-30T06:23:53;15.50;99.90
21612;DHT22;47005;52.292;13.452;2023-08-30T06:26:19;15.60;99.90
21612;DHT22;47005;52.292;13.452;2023-08-30T06:28:44;15.60;99.90
21612;DHT22;47005;52.292;13.452;2023-08-30T06:31:10;15.60;99.90
21612;DHT22;47005;52.292;13.452;2023-08-30T06:33:36;15.60;99.90
21612;DHT22;47005;52.292;13.452;2023-08-30T06:36:03;15.60;99.90
21612;DHT22;47005;52.292;13.452;2023-08-30T06:38:29;15.60;99.90
21612;DHT22;47005;52.292;13.452;2023-08-30T06:40:57;15.70;99.90
21612;DHT22;47005;52.292;13.452;2023-08-30T06:43:23;15.70;99.90
21612;DHT22;47005;52.292;13.452;2023-08-30T06:45:49;15.70;99.90
21612;DHT22;47005;52.292;13.452;2023-08-30T06:48:15;15.70;99.90
21612;DHT22;47005;52.292;13.452;2023-08-30T06:50:40;15.80;99.90
21612;DHT22;47005;52.292;13.452;2023-08-30T06:53:06;15.80;99.90
21612;DHT22;47005;52.292;13.452;2023-08-30T06:55:31;15.80;99.90
21612;DHT22;47005;52.292;13.452;2023-08-30T06:57:59;15.80;99.90
21612;DHT22;47005;52.292;13.452;2023-08-30T07:00:24;15.80;99.90
21612;DHT22;47005;52.292;13.452;2023-08-30T07:02:50;15.90;99.90
21612;DHT22;47005;52.292;13.452;2023-08-30T07:05:16;15.90;99.90
21612;DHT22;47005;52.292;13.452;2023-08-30T07:07:41;15.90;99.90
21612;DHT22;47005;52.292;13.452;2023-08-30T07:10:07;16.00;99.90
21612;DHT22;47005;52.292;13.452;2023-08-30T07:12:33;16.00;99.90
21612;DHT22;47005;52.292;13.452;2023-08-30T07:14:59;16.00;99.90
21612;DHT22;47005;52.292;13.452;2023-08-30T07:17:24;16.00;99.90
21612;DHT22;47005;52.292;13.452;2023-08-30T07:19:50;16.00;99.90
21612;DHT22;47005;52.292;13.452;2023-08-30T07:22:16;16.10;99.90
21612;DHT22;47005;52.292;13.452;2023-08-30T07:24:45;16.10;99.90
21612;DHT22;47005;52.292;13.452;2023-08-30T07:27:11;16.10;99.90
21612;DHT22;47005;52.292;13.452;2023-08-30T07:29:38;16.10;99.90
21612;DHT22;47005;52.292;13.452;2023-08-30T07:32:06;16.10;99.90
21612;DHT22;47005;52.292;13.452;2023-08-30T07:34:32;16.20;99.90
21612;DHT22;47005;52.292;13.452;2023-08-30T07:36:57;16.20;99.90
21612;DHT22;47005;52.292;13.452;2023-08-30T07:39:23;16.20;99.90
21612;DHT22;47005;52.292;13.452;2023-08-30T07:41:49;16.20;99.90
21612;DHT22;47005;52.292;13.452;2023-08-30T07:44:14;16.30;99.90
21612;DHT22;47005;52.292;13.452;2023-08-30T07:46:41;16.30;99.90
21612;DHT22;47005;52.292;13.452;2023-08-30T07:49:07;16.30;99.90
21612;DHT22;47005;52.292;13.452;2023-08-30T07:51:33;16.30;99.90
21612;DHT22;47005;52.292;13.452;2023-08-30T07:53:58;16.30;99.90
21612;DHT22;47005;52.292;13.452;2023-08-30T07:56:24;16.30;99.90
21612;DHT22;47005;52.292;13.452;2023-08-30T07:58:49;16.40;99.90
21612;DHT22;47005;52.292;13.452;2023-08-30T08:01:15;16.40;99.90
21612;DHT22;47005;52.292;13.452;2023-08-30T08:03:41;16.40;99.90
21612;DHT22;47005;52.292;13.452;2023-08-30T08:06:07;16.40;99.90
21612;DHT22;47005;52.292;13.452;2023-08-30T08:08:32;16.40;99.90
21612;DHT22;47005;52.292;13.452;2023-08-30T08:10:59;16.50;99.90
21612;DHT22;47005;52.292;13.452;2023-08-30T08:13:25;16.50;99.90
21612;DHT22;47005;52.292;13.452;2023-08-30T08:15:51;16.50;99.90
21612;DHT22;47005;52.292;13.452;2023-08-30T08:18:16;16.50;99.90
21612;DHT22;47005;52.292;13.452;2023-08-30T08:20:42;16.50;99.90
21612;DHT22;47005;52.292;13.452;2023-08-30T08:23:08;16.50;99.90
21612;DHT22;47005;52.292;13.452;2023-08-30T08:25:34;16.60;99.90
21612;DHT22;47005;52.292;13.452;2023-08-30T08:28:00;16.60;99.90
21612;DHT22;47005;52.292;13.452;2023-08-30T08:30:25;16.60;99.90
21612;DHT22;47005;52.292;13.452;2023-08-30T08:32:51;16.60;99.90
21612;DHT22;47005;52.292;13.452;2023-08-30T08:35:17;16.70;99.90
21612;DHT22;47005;52.292;13.452;2023-08-30T08:37:42;16.70;99.90
21612;DHT22;47005;52.292;13.452;2023-08-30T08:40:08;16.70;99.90
21612;DHT22;47005;52.292;13.452;2023-08-30T08:42:35;16.70;99.90
21612;DHT22;47005;52.292;13.452;2023-08-30T08:45:02;16.70;99.90
21612;DHT22;47005;52.292;13.452;2023-08-30T08:47:30;16.80;99.90
21612;DHT22;47005;52.292;13.452;2023-08-30T08:49:56;16.80;99.90
21612;DHT22;47005;52.292;13.452;2023-08-30T08:52:23;16.80;99.90
21612;DHT22;47005;52.292;13.452;2023-08-30T08:54:50;16.80;99.90
21612;DHT22;47005;52.292;13.452;2023-08-30T08:57:16;16.90;99.90
21612;DHT22;47005;52.292;13.452;2023-08-30T08:59:42;16.90;99.90
21612;DHT22;47005;52.292;13.452;2023-08-30T09:02:12;16.90;99.90
21612;DHT22;47005;52.292;13.452;2023-08-30T09:04:39;16.90;99.90
21612;DHT22;47005;52.292;13.452;2023-08-30T09:07:04;16.90;99.90
21612;DHT22;47005;52.292;13.452;2023-08-30T09:09:30;17.00;99.90
21612;DHT22;47005;52.292;13.452;2023-08-30T09:11:56;17.00;99.90
21612;DHT22;47005;52.292;13.452;2023-08-30T09:14:22;17.00;99.90
21612;DHT22;47005;52.292;13.452;2023-08-30T09:16:58;17.00;99.90
21612;DHT22;47005;52.292;13.452;2023-08-30T09:19:24;17.10;99.90
21612;DHT22;47005;52.292;13.452;2023-08-30T09:21:54;17.10;99.90
21612;DHT22;47005;52.292;13.452;2023-08-30T09:24:20;17.10;99.90
21612;DHT22;47005;52.292;13.452;2023-08-30T09:26:51;17.10;99.90
21612;DHT22;47005;52.292;13.452;2023-08-30T09:29:19;17.20;99.90
21612;DHT22;47005;52.292;13.452;2023-08-30T09:31:45;17.20;99.90
21612;DHT22;47005;52.292;13.452;2023-08-30T09:34:11;17.20;99.90
21612;DHT22;47005;52.292;13.452;2023-08-30T09:36:41;17.20;99.90
21612;DHT22;47005;52.292;13.452;2023-08-30T09:39:14;17.30;99.90
21612;DHT22;47005;52.292;13.452;2023-08-30T09:41:44;17.30;99.90
21612;DHT22;47005;52.292;13.452;2023-08-30T09:46:49;17.30;99.90
21612;DHT22;47005;52.292;13.452;2023-08-30T09:49:15;17.30;99.90
21612;DHT22;47005;52.292;13.452;2023-08-30T09:51:41;17.40;99.90
21612;DHT22;47005;52.292;13.452;2023-08-30T09:54:14;17.40;99.90
21612;DHT22;47005;52.292;13.452;2023-08-30T09:56:41;17.40;99.90
21612;DHT22;47005;52.292;13.452;2023-08-30T09:59:09;17.50;99.90
21612;DHT22;47005;52.292;13.452;2023-08-30T10:01:37;17.40;99.90
21612;DHT22;47005;52.292;13.452;2023-08-30T10:04:04;17.50;99.90
21612;DHT22;47005;52.292;13.452;2023-08-30T10:06:32;17.50;99.90
21612;DHT22;47005;52.292;13.452;2023-08-30T10:08:59;17.50;99.90
21612;DHT22;47005;52.292;13.452;2023-08-30T10:11:27;17.50;99.90
21612;DHT22;47005;52.292;13.452;2023-08-30T10:13:55;17.60;99.90
21612;DHT22;47005;52.292;13.452;2023-08-30T10:16:22;17.60;99.90
21612;DHT22;47005;52.292;13.452;2023-08-30T10:18:53;17.60;99.90
21612;DHT22;47005;52.292;13.452;2023-08-30T10:21:20;17.70;99.90
21612;DHT22;47005;52.292;13.452;2023-08-30T10:23:48;17.70;99.90
21612;DHT22;47005;52.292;13.452;2023-08-30T10:26:16;17.70;99.90
21612;DHT22;47005;52.292;13.452;2023-08-30T10:28:43;17.70;99.90
21612;DHT22;47005;52.292;13.452;2023-08-30T10:31:09;17.80;99.90
21612;DHT22;47005;52.292;13.452;2023-08-30T10:33:49;17.80;99.90
21612;DHT22;47005;52.292;13.452;2023-08-30T10:36:26;17.80;99.90
21612;DHT22;47005;52.292;13.452;2023-08-30T10:38:54;17.90;99.90
21612;DHT22;47005;52.292;13.452;2023-08-30T10:41:26;17.90;99.90
21612;DHT22;47005;52.292;13.452;2023-08-30T10:43:55;18.00;99.90
21612;DHT22;47005;52.292;13.452;2023-08-30T10:46:34;18.00;99.90
21612;DHT22;47005;52.292;13.452;2023-08-30T10:49:13;18.00;99.90
21612;DHT22;47005;52.292;13.452;2023-08-30T10:51:42;18.00;99.90
21612;DHT22;47005;52.292;13.452;2023-08-30T10:54:14;18.10;99.90
21612;DHT22;47005;52.292;13.452;2023-08-30T10:56:57;18.00;99.90
21612;DHT22;47005;52.292;13.452;2023-08-30T10:59:26;18.10;99.90
21612;DHT22;47005;52.292;13.452;2023-08-30T11:01:52;18.10;99.90
21612;DHT22;47005;52.292;13.452;2023-08-30T11:04:19;18.10;99.90
21612;DHT22;47005;52.292;13.452;2023-08-30T11:06:46;18.10;99.90
21612;DHT22;47005;52.292;13.452;2023-08-30T11:09:13;18.10;99.90
21612;DHT22;47005;52.292;13.452;2023-08-30T11:11:40;18.20;99.90
21612;DHT22;47005;52.292;13.452;2023-08-30T11:14:06;18.20;99.90
21612;DHT22;47005;52.292;13.452;2023-08-30T11:16:34;18.20;99.90
21612;DHT22;47005;52.292;13.452;2023-08-30T11:19:04;18.20;99.90
21612;DHT22;47005;52.292;13.452;2023-08-30T11:21:37;18.20;99.90
21612;DHT22;47005;52.292;13.452;2023-08-30T11:24:04;18.30;99.90
21612;DHT22;47005;52.292;13.452;2023-08-30T11:26:30;18.30;99.90
21612;DHT22;47005;52.292;13.452;2023-08-30T11:28:56;18.30;99.90
21612;DHT22;47005;52.292;13.452;2023-08-30T11:31:23;18.30;99.90
21612;DHT22;47005;52.292;13.452;2023-08-30T11:33:52;18.30;99.90
21612;DHT22;47005;52.292;13.452;2023-08-30T11:36:20;18.40;99.90
21612;DHT22;47005;52.292;13.452;2023-08-30T11:38:47;18.40;99.90
21612;DHT22;47005;52.292;13.452;2023-08-30T11:41:12;18.40;99.90
21612;DHT22;47005;52.292;13.452;2023-08-30T11:43:38;18.40;99.90
21612;DHT22;47005;52.292;13.452;2023-08-30T11:46:05;18.40;99.90
21612;DHT22;47005;52.292;13.452;2023-08-30T11:48:31;18.40;99.90
21612;DHT22;47005;52.292;13.452;2023-08-30T11:50:58;18.40;99.90
21612;DHT22;47005;52.292;13.452;2023-08-30T11:53:24;18.50;99.90
21612;DHT22;47005;52.292;13.452;2023-08-30T11:55:51;18.50;99.90
21612;DHT22;47005;52.292;13.452;2023-08-30T11:58:18;18.50;99.90
21612;DHT22;47005;52.292;13.452;2023-08-30T12:00:44;18.50;99.90
21612;DHT22;47005;52.292;13.452;2023-08-30T12:03:13;18.50;99.90
21612;DHT22;47005;52.292;13.452;2023-08-30T12:05:50;18.60;99.90
21612;DHT22;47005;52.292;13.452;2023-08-30T12:08:20;18.50;99.90
21612;DHT22;47005;52.292;13.452;2023-08-30T12:10:46;18.60;99.90
21612;DHT22;47005;52.292;13.452;2023-08-30T12:13:29;18.60;99.90
21612;DHT22;47005;52.292;13.452;2023-08-30T12:15:56;18.60;99.90
21612;DHT22;47005;52.292;13.452;2023-08-30T12:18:26;18.60;99.90
21612;DHT22;47005;52.292;13.452;2023-08-30T12:21:03;18.60;99.90
21612;DHT22;47005;52.292;13.452;2023-08-30T12:23:30;18.60;99.90
21612;DHT22;47005;52.292;13.452;2023-08-30T12:26:07;18.60;99.90
21612;DHT22;47005;52.292;13.452;2023-08-30T12:28:35;18.70;99.90
21612;DHT22;47005;52.292;13.452;2023-08-30T12:31:01;18.70;99.90
21612;DHT22;47005;52.292;13.452;2023-08-30T12:33:27;18.70;99.90
21612;DHT22;47005;52.292;13.452;2023-08-30T12:35:56;18.70;99.90
21612;DHT22;47005;52.292;13.452;2023-08-30T12:38:22;18.60;99.90
21612;DHT22;47005;52.292;13.452;2023-08-30T12:40:50;18.70;99.90
21612;DHT22;47005;52.292;13.452;2023-08-30T12:43:16;18.60;99.90
21612;DHT22;47005;52.292;13.452;2023-08-30T12:45:43;18.60;99.90
21612;DHT22;47005;52.292;13.452;2023-08-30T12:48:10;18.60;99.90
21612;DHT22;47005;52.292;13.452;2023-08-30T12:50:37;18.60;99.90
21612;DHT22;47005;52.292;13.452;2023-08-30T12:53:06;18.60;99.90
21612;DHT22;47005;52.292;13.452;2023-08-30T12:55:32;18.60;99.90
21612;DHT22;47005;52.292;13.452;2023-08-30T12:57:59;18.60;99.90
21612;DHT22;47005;52.292;13.452;2023-08-30T13:00:25;18.60;99.90
21612;DHT22;47005;52.292;13.452;2023-08-30T13:02:50;18.60;99.90
21612;DHT22;47005;52.292;13.452;2023-08-30T13:05:16;18.60;99.90
21612;DHT22;47005;52.292;13.452;2023-08-30T13:07:42;18.60;99.90
21612;DHT22;47005;52.292;13.452;2023-08-30T13:10:09;18.60;99.90
21612;DHT22;47005;52.292;13.452;2023-08-30T13:12:35;18.60;99.90
21612;DHT22;47005;52.292;13.452;2023-08-30T13:15:01;18.60;99.90
21612;DHT22;47005;52.292;13.452;2023-08-30T13:17:27;18.60;99.90
21612;DHT22;47005;52.292;13.452;2023-08-30T13:19:52;18.70;99.90
21612;DHT22;47005;52.292;13.452;2023-08-30T13:22:18;18.70;99.90
21612;DHT22;47005;52.292;13.452;2023-08-30T13:24:44;18.70;99.90
21612;DHT22;47005;52.292;13.452;2023-08-30T13:27:10;18.70;99.90
21612;DHT22;47005;52.292;13.452;2023-08-30T13:29:36;18.70;99.90
21612;DHT22;47005;52.292;13.452;2023-08-30T13:32:02;18.70;99.90
21612;DHT22;47005;52.292;13.452;2023-08-30T13:34:28;18.70;99.90
21612;DHT22;47005;52.292;13.452;2023-08-30T13:36:54;18.70;99.90
21612;DHT22;47005;52.292;13.452;2023-08-30T13:39:19;18.80;99.90
21612;DHT22;47005;52.292;13.452;2023-08-30T13:41:46;18.80;99.90
21612;DHT22;47005;52.292;13.452;2023-08-30T13:44:13;18.90;99.90
21612;DHT22;47005;52.292;13.452;2023-08-30T13:46:38;18.90;99.90
21612;DHT22;47005;52.292;13.452;2023-08-30T13:49:04;19.00;99.90
21612;DHT22;47005;52.292;13.452;2023-08-30T13:51:33;19.00;99.90
21612;DHT22;47005;52.292;13.452;2023-08-30T13:53:59;19.10;99.90
21612;DHT22;47005;52.292;13.452;2023-08-30T13:56:24;19.10;99.90
21612;DHT22;47005;52.292;13.452;2023-08-30T13:58:50;19.30;99.90
21612;DHT22;47005;52.292;13.452;2023-08-30T14:01:16;19.40;99.90
21612;DHT22;47005;52.292;13.452;2023-08-30T14:03:42;19.40;99.90
21612;DHT22;47005;52.292;13.452;2023-08-30T14:06:08;19.50;99.90
21612;DHT22;47005;52.292;13.452;2023-08-30T14:08:34;19.60;99.90
21612;DHT22;47005;52.292;13.452;2023-08-30T14:11:00;19.60;99.90
21612;DHT22;47005;52.292;13.452;2023-08-30T14:13:26;19.60;99.90
21612;DHT22;47005;52.292;13.452;2023-08-30T14:15:53;19.60;99.90
21612;DHT22;47005;52.292;13.452;2023-08-30T14:18:19;19.70;99.90
21612;DHT22;47005;52.292;13.452;2023-08-30T14:20:45;19.70;99.90
21612;DHT22;47005;52.292;13.452;2023-08-30T14:23:10;19.60;99.90
21612;DHT22;47005;52.292;13.452;2023-08-30T14:25:36;19.60;99.90
21612;DHT22;47005;52.292;13.452;2023-08-30T14:28:02;19.60;99.90
21612;DHT22;47005;52.292;13.452;2023-08-30T14:30:30;19.60;99.90
21612;DHT22;47005;52.292;13.452;2023-08-30T14:32:55;19.60;99.90
21612;DHT22;47005;52.292;13.452;2023-08-30T14:35:21;19.60;99.90
21612;DHT22;47005;52.292;13.452;2023-08-30T14:37:50;19.60;99.90
21612;DHT22;47005;52.292;13.452;2023-08-30T14:40:16;19.60;99.90
21612;DHT22;47005;52.292;13.452;2023-08-30T14:42:42;19.60;99.90
21612;DHT22;47005;52.292;13.452;2023-08-30T14:45:08;19.60;99.90
21612;DHT22;47005;52.292;13.452;2023-08-30T14:47:34;19.50;99.90
21612;DHT22;47005;52.292;13.452;2023-08-30T14:50:00;19.50;99.90
21612;DHT22;47005;52.292;13.452;2023-08-30T14:52:28;19.50;99.90
21612;DHT22;47005;52.292;13.452;2023-08-30T14:54:54;19.40;99.90
21612;DHT22;47005;52.292;13.452;2023-08-30T14:57:19;19.40;99.90
21612;DHT22;47005;52.292;13.452;2023-08-30T14:59:46;19.40;99.90
21612;DHT22;47005;52.292;13.452;2023-08-30T15:02:12;19.30;99.90
21612;DHT22;47005;52.292;13.452;2023-08-30T15:04:37;19.30;99.90
21612;DHT22;47005;52.292;13.452;2023-08-30T15:07:03;19.20;99.90
21612;DHT22;47005;52.292;13.452;2023-08-30T15:09:30;19.20;99.90
21612;DHT22;47005;52.292;13.452;2023-08-30T15:11:56;19.10;99.90
21612;DHT22;47005;52.292;13.452;2023-08-30T15:14:24;19.10;99.90
21612;DHT22;47005;52.292;13.452;2023-08-30T15:16:49;19.00;99.90
21612;DHT22;47005;52.292;13.452;2023-08-30T15:19:15;19.00;99.90
21612;DHT22;47005;52.292;13.452;2023-08-30T15:21:40;19.00;99.90
21612;DHT22;47005;52.292;13.452;2023-08-30T15:24:06;19.00;99.90